createdAt,value
2018-10-17T04:33:33.180Z,23.47
2018-10-17T04:36:01.916Z,27.10
2018-10-17T04:38:30.607Z,28.53
2018-10-17T04:40:58.659Z,27.50
2018-10-17T04:43:28.624Z,24.90
2018-10-17T04:45:56.689Z,25.50
2018-10-17T04:48:26.324Z,28.50
2018-10-17T04:50:54.686Z,27.80
2018-10-17T04:53:24.751Z,29.60
2018-10-17T04:55:53.302Z,29.90
2018-10-17T04:58:21.835Z,30.63
2018-10-17T05:00:49.928Z,32.87
2018-10-17T05:03:27.641Z,35.23
2018-10-17T05:05:55.680Z,33.33
2018-10-17T05:08:23.838Z,29.33
2018-10-17T05:10:52.086Z,29.97
2018-10-17T05:13:20.412Z,37.27
2018-10-17T05:15:48.403Z,34.03
2018-10-17T05:18:16.709Z,35.03
2018-10-17T05:20:44.785Z,35.40
2018-10-17T05:23:13.161Z,34.47
2018-10-17T05:25:41.741Z,32.57
2018-10-17T05:28:09.977Z,31.33
2018-10-17T05:30:38.219Z,28.50
2018-10-17T05:33:06.830Z,34.53
2018-10-17T05:35:35.048Z,35.63
2018-10-17T05:38:03.563Z,34.73
2018-10-17T05:40:31.607Z,43.23
2018-10-17T05:43:00.428Z,30.00
2018-10-17T05:45:28.788Z,36.20
2018-10-17T05:47:57.027Z,34.53
2018-10-17T05:50:25.534Z,28.47
2018-10-17T05:52:54.113Z,29.40
2018-10-17T05:55:23.181Z,31.43
2018-10-17T05:57:51.694Z,29.63
2018-10-17T06:00:20.281Z,30.10
2018-10-17T06:02:48.931Z,30.03
2018-10-17T06:05:18.021Z,34.60
2018-10-17T06:07:53.217Z,28.27
2018-10-17T06:10:21.303Z,28.30
2018-10-17T06:12:49.261Z,29.83
2018-10-17T06:15:17.231Z,31.73
2018-10-17T06:17:45.542Z,26.80
2018-10-17T06:20:13.998Z,27.60
2018-10-17T06:22:42.014Z,30.70
2018-10-17T06:30:51.679Z,25.47
2018-10-17T06:33:19.893Z,29.17
2018-10-17T06:35:48.119Z,27.90
2018-10-17T06:38:16.087Z,25.00
2018-10-17T06:40:44.654Z,25.23
2018-10-17T06:43:13.280Z,21.77
2018-10-17T06:45:41.628Z,26.90
2018-10-17T06:48:10.138Z,21.27
2018-10-17T06:50:38.325Z,24.53
2018-10-17T06:53:06.966Z,23.53
2018-10-17T06:55:35.056Z,22.40
2018-10-17T06:58:03.775Z,24.30
2018-10-17T07:00:32.049Z,25.97
2018-10-17T07:03:00.321Z,22.03
2018-10-17T07:05:29.339Z,20.67
2018-10-17T07:07:57.758Z,20.60
2018-10-17T07:10:26.261Z,23.90
2018-10-17T07:12:54.741Z,20.80
2018-10-17T07:15:22.675Z,24.97
2018-10-17T07:17:50.975Z,18.57
2018-10-17T07:20:19.676Z,18.97
2018-10-17T07:22:47.913Z,19.20
2018-10-17T07:25:16.290Z,19.60
2018-10-17T07:27:44.883Z,19.23
2018-10-17T07:30:13.216Z,23.43
2018-10-17T07:32:41.830Z,18.70
2018-10-17T07:35:10.624Z,18.70
2018-10-17T07:37:38.953Z,22.93
2018-10-17T07:40:07.315Z,20.17
2018-10-17T07:42:35.814Z,19.90
2018-10-17T07:45:04.097Z,20.10
2018-10-17T07:47:32.269Z,18.50
2018-10-17T07:50:00.952Z,20.07
2018-10-17T07:52:29.946Z,23.50
2018-10-17T07:54:58.120Z,18.40
2018-10-17T07:57:26.225Z,22.90
2018-10-17T07:59:54.518Z,23.03
2018-10-17T08:02:22.505Z,21.80
2018-10-17T08:04:50.630Z,22.40
2018-10-17T08:07:19.077Z,21.13
2018-10-17T08:09:47.227Z,21.77
2018-10-17T08:12:15.671Z,17.93
2018-10-17T08:14:44.012Z,20.83
2018-10-17T08:17:12.375Z,21.27
2018-10-17T08:19:40.678Z,19.10
2018-10-17T08:22:08.995Z,22.60
2018-10-17T08:24:37.611Z,18.77
2018-10-17T08:27:05.751Z,18.50
2018-10-17T08:29:34.242Z,18.37
2018-10-17T08:32:02.538Z,22.97
2018-10-17T08:34:30.983Z,21.73
2018-10-17T08:36:59.893Z,17.87
2018-10-17T08:39:28.662Z,19.47
2018-10-17T08:41:56.829Z,19.93
2018-10-17T08:44:25.531Z,19.37
2018-10-17T08:46:53.873Z,18.83
2018-10-17T08:49:22.270Z,18.77
2018-10-17T08:51:50.611Z,22.30
2018-10-17T08:54:19.000Z,16.67
2018-10-17T08:56:47.421Z,22.73
2018-10-17T08:59:15.708Z,17.13
2018-10-17T09:01:44.175Z,21.83
2018-10-17T09:04:12.670Z,19.00
2018-10-17T09:06:40.952Z,18.77
2018-10-17T09:09:09.787Z,18.07
2018-10-17T09:11:38.278Z,17.83
2018-10-17T09:14:06.576Z,15.70
2018-10-17T09:16:35.122Z,17.27
2018-10-17T09:19:03.148Z,19.83
2018-10-17T09:21:31.253Z,17.60
2018-10-17T09:24:00.106Z,18.27
2018-10-17T09:26:28.153Z,20.27
2018-10-17T09:28:56.213Z,17.63
2018-10-17T09:31:24.295Z,17.47
2018-10-17T09:33:52.432Z,20.43
2018-10-17T09:36:20.732Z,16.00
2018-10-17T09:38:48.805Z,17.40
2018-10-17T09:41:17.262Z,16.83
2018-10-17T09:43:45.331Z,18.20
2018-10-17T09:46:13.633Z,15.90
2018-10-17T09:48:41.873Z,17.80
2018-10-17T09:51:09.945Z,16.63
2018-10-17T09:53:37.955Z,16.60
2018-10-17T09:56:06.214Z,15.43
2018-10-17T09:58:34.257Z,14.87
2018-10-17T10:01:07.788Z,13.93
2018-10-17T10:03:36.571Z,16.30
2018-10-17T10:06:05.134Z,16.50
2018-10-17T10:08:33.433Z,16.93
2018-10-17T10:11:01.798Z,17.37
2018-10-17T10:13:30.058Z,15.67
2018-10-17T10:15:58.966Z,15.67
2018-10-17T10:18:27.676Z,11.70
2018-10-17T10:20:55.824Z,12.50
2018-10-17T10:23:24.599Z,13.37
2018-10-17T10:25:53.245Z,15.40
2018-10-17T10:28:21.877Z,14.70
2018-10-17T10:30:50.758Z,15.70
2018-10-17T10:33:19.518Z,13.73
2018-10-17T10:35:52.560Z,13.43
2018-10-17T10:38:20.952Z,21.50
2018-10-17T10:40:49.875Z,16.60
2018-10-17T10:43:18.201Z,15.67
2018-10-17T10:45:47.450Z,16.40
2018-10-17T10:48:16.387Z,15.07
2018-10-17T10:50:45.166Z,16.17
2018-10-17T10:53:13.791Z,17.20
2018-10-17T10:55:42.090Z,12.07
2018-10-17T10:58:10.730Z,18.20
2018-10-17T11:00:39.528Z,16.03
2018-10-17T11:03:07.660Z,13.73
2018-10-17T11:05:36.590Z,15.43
2018-10-17T11:08:04.941Z,17.37
2018-10-17T11:10:33.506Z,14.13
2018-10-17T11:13:02.090Z,14.27
2018-10-17T11:15:30.770Z,16.00
2018-10-17T11:17:59.278Z,15.53
2018-10-17T11:20:27.684Z,14.73
2018-10-17T11:22:57.029Z,15.83
2018-10-17T11:25:25.937Z,11.03
2018-10-17T11:27:54.167Z,13.43
2018-10-17T11:30:22.869Z,15.83
2018-10-17T11:32:51.497Z,13.90
2018-10-17T11:35:19.848Z,18.50
2018-10-17T11:37:49.759Z,13.93
2018-10-17T11:40:18.577Z,14.40
2018-10-17T11:42:47.350Z,13.33
2018-10-17T11:45:16.446Z,14.30
2018-10-17T11:47:45.615Z,14.03
2018-10-17T11:50:14.502Z,11.57
2018-10-17T11:52:43.541Z,17.60
2018-10-17T11:55:12.791Z,12.23
2018-10-17T11:57:41.093Z,14.10
2018-10-17T12:00:10.252Z,13.00
2018-10-17T12:02:38.704Z,18.23
2018-10-17T12:05:08.341Z,13.33
2018-10-17T12:07:37.073Z,14.13
2018-10-17T12:10:07.699Z,13.83
2018-10-17T12:12:35.988Z,13.50
2018-10-17T12:15:05.714Z,15.60
2018-10-17T12:17:34.090Z,14.60
2018-10-17T12:20:02.822Z,13.10
2018-10-17T12:22:31.645Z,15.73
2018-10-17T12:25:01.070Z,15.50
2018-10-17T12:27:29.862Z,14.30
2018-10-17T12:29:58.886Z,14.30
2018-10-17T12:32:27.147Z,20.67
2018-10-17T12:34:56.907Z,13.47
2018-10-17T12:37:25.803Z,16.30
2018-10-17T12:39:54.805Z,21.03
2018-10-17T12:42:23.850Z,15.50
2018-10-17T12:44:53.596Z,18.67
2018-10-17T12:47:22.771Z,15.30
2018-10-17T12:49:52.639Z,12.23
2018-10-17T12:52:21.006Z,16.90
2018-10-17T12:54:49.843Z,19.93
2018-10-17T12:57:19.045Z,19.47
2018-10-17T12:59:48.019Z,12.07
2018-10-17T13:02:16.557Z,15.37
2018-10-17T13:04:45.533Z,13.47
2018-10-17T13:07:13.636Z,12.47
2018-10-17T13:09:42.913Z,16.57
2018-10-17T13:12:12.679Z,14.57
2018-10-17T13:14:41.775Z,15.83
2018-10-17T13:17:10.462Z,11.43
2018-10-17T13:19:42.587Z,14.73
2018-10-17T13:22:11.975Z,15.93
2018-10-17T13:24:41.304Z,13.73
2018-10-17T13:27:09.794Z,13.97
2018-10-17T13:29:38.541Z,15.07
2018-10-17T13:32:07.963Z,14.13
2018-10-17T13:34:37.373Z,12.43
2018-10-17T13:37:06.156Z,11.67
2018-10-17T13:39:35.071Z,13.97
2018-10-17T13:42:03.366Z,13.37
2018-10-17T13:44:33.041Z,12.43
2018-10-17T13:47:01.404Z,15.03
2018-10-17T13:49:29.737Z,15.73
2018-10-17T13:51:58.501Z,14.47
2018-10-17T13:54:26.815Z,18.17
2018-10-17T13:56:56.808Z,12.57
2018-10-17T13:59:27.204Z,20.23
2018-10-17T14:01:56.888Z,17.80
2018-10-17T14:04:26.125Z,13.50
2018-10-17T14:06:55.310Z,18.80
2018-10-17T14:09:24.996Z,15.53
2018-10-17T14:11:54.717Z,14.30
2018-10-17T14:14:24.543Z,14.80
2018-10-17T14:16:53.044Z,18.30
2018-10-17T14:19:22.360Z,13.33
2018-10-17T14:21:50.901Z,14.50
2018-10-17T14:24:20.153Z,15.23
2018-10-17T14:26:50.008Z,13.53
2018-10-17T14:29:18.796Z,13.90
2018-10-17T14:31:47.561Z,12.80
2018-10-17T14:34:16.196Z,15.67
2018-10-17T14:36:44.859Z,16.80
2018-10-17T14:39:13.667Z,11.90
2018-10-17T14:41:42.352Z,14.90
2018-10-17T14:44:11.363Z,16.00
2018-10-17T14:46:39.957Z,13.97
2018-10-17T14:49:08.643Z,16.23
2018-10-17T14:51:37.297Z,16.37
2018-10-17T14:54:05.765Z,15.53
2018-10-17T14:56:34.554Z,16.90
2018-10-17T14:59:02.848Z,17.40
2018-10-17T15:01:31.376Z,16.70
2018-10-17T15:04:00.062Z,18.23
2018-10-17T15:06:28.634Z,14.73
2018-10-17T15:08:57.283Z,16.87
2018-10-17T15:11:26.020Z,16.87
2018-10-17T15:13:54.694Z,15.17
2018-10-17T15:16:23.190Z,19.50
2018-10-17T15:18:51.872Z,13.30
2018-10-17T15:21:20.850Z,14.60
2018-10-17T15:23:49.564Z,19.20
2018-10-17T15:26:18.940Z,19.03
2018-10-17T15:28:48.093Z,18.23
2018-10-17T15:31:16.078Z,15.97
2018-10-17T15:33:44.053Z,15.27
2018-10-17T15:36:12.074Z,16.63
2018-10-17T15:38:40.053Z,18.73
2018-10-17T15:41:08.138Z,15.83
2018-10-17T15:43:36.273Z,14.77
2018-10-17T15:46:04.219Z,19.80
2018-10-17T15:48:32.253Z,19.80
2018-10-17T15:51:00.298Z,18.20
2018-10-17T15:53:28.322Z,19.30
2018-10-17T15:55:56.282Z,22.47
2018-10-17T15:58:24.774Z,20.80
2018-10-17T16:00:52.804Z,19.97
2018-10-17T16:03:20.807Z,19.60
2018-10-17T16:05:48.790Z,24.90
2018-10-17T16:08:16.885Z,21.70
2018-10-17T16:10:44.847Z,22.23
2018-10-17T16:13:12.840Z,22.37
2018-10-17T16:15:41.560Z,15.90
2018-10-17T16:18:11.025Z,23.70
2018-10-17T16:20:38.973Z,23.77
2018-10-17T16:23:07.183Z,21.73
2018-10-17T16:25:35.164Z,19.17
2018-10-17T16:28:03.148Z,20.70
2018-10-17T16:30:31.206Z,19.90
2018-10-17T16:32:59.183Z,30.57
2018-10-17T16:35:27.272Z,24.00
2018-10-17T16:37:55.360Z,26.60
2018-10-17T16:40:23.400Z,20.10
2018-10-17T16:42:51.450Z,19.53
2018-10-17T16:45:19.515Z,19.13
2018-10-17T16:47:47.516Z,19.87
2018-10-17T16:50:15.655Z,20.80
2018-10-17T16:52:43.548Z,22.50
2018-10-17T16:55:11.582Z,23.13
2018-10-17T16:57:39.650Z,18.57
2018-10-17T17:00:08.652Z,23.43
2018-10-17T17:02:36.673Z,21.43
2018-10-17T17:05:05.642Z,23.73
2018-10-17T17:07:33.975Z,24.47
2018-10-17T17:10:02.062Z,24.13
2018-10-17T17:12:30.465Z,26.57
2018-10-17T17:14:58.729Z,28.70
2018-10-17T17:17:27.396Z,24.60
2018-10-17T17:19:55.684Z,25.90
2018-10-17T17:22:23.731Z,24.80
2018-10-17T17:24:51.765Z,29.50
2018-10-17T17:27:20.159Z,25.40
2018-10-17T17:29:48.617Z,29.30
2018-10-17T17:32:17.067Z,31.40
2018-10-17T17:34:45.382Z,26.43
2018-10-17T17:37:13.465Z,35.07
2018-10-17T17:39:41.508Z,25.70
2018-10-17T17:42:09.583Z,26.83
2018-10-17T17:44:37.558Z,29.23
2018-10-17T17:47:05.848Z,26.30
2018-10-17T17:49:33.925Z,29.00
2018-10-17T17:52:02.086Z,26.43
2018-10-17T17:54:30.019Z,27.67
2018-10-17T17:56:58.053Z,29.33
2018-10-17T17:59:26.183Z,26.90
2018-10-17T18:01:54.208Z,25.97
2018-10-17T18:04:22.719Z,29.83
2018-10-17T18:06:50.683Z,34.13
2018-10-17T18:09:18.753Z,29.70
2018-10-17T18:11:47.064Z,29.90
2018-10-17T18:14:15.479Z,34.80
2018-10-17T18:16:43.421Z,27.67
2018-10-17T18:19:11.445Z,31.13
2018-10-17T18:21:39.719Z,27.43
2018-10-17T18:24:08.389Z,30.37
2018-10-17T18:26:37.402Z,31.80
2018-10-17T18:29:05.854Z,31.37
2018-10-17T18:31:34.654Z,26.83
2018-10-17T18:34:03.367Z,34.07
2018-10-17T18:36:32.103Z,34.80
2018-10-17T18:39:00.547Z,30.10
2018-10-17T18:41:29.209Z,32.77
2018-10-17T18:43:57.726Z,37.20
2018-10-17T18:46:26.373Z,31.17
2018-10-17T18:48:54.461Z,32.40
2018-10-17T18:51:23.025Z,28.87
2018-10-17T18:53:51.380Z,30.17
2018-10-17T18:56:21.069Z,31.33
2018-10-17T18:58:49.805Z,33.27
2018-10-17T19:01:18.462Z,32.17
2018-10-17T19:03:47.142Z,27.63
2018-10-17T19:06:16.528Z,39.03
2018-10-17T19:08:45.191Z,31.87
2018-10-17T19:11:14.378Z,38.33
2018-10-17T19:13:43.472Z,33.00
2018-10-17T19:16:14.458Z,30.73
2018-10-17T19:18:45.701Z,38.73
2018-10-17T19:26:48.937Z,33.77
2018-10-17T19:29:18.479Z,34.37
2018-10-17T19:31:49.992Z,33.10
2018-10-17T19:34:23.880Z,33.40
2018-10-17T19:36:55.004Z,39.47
2018-10-17T19:39:24.863Z,36.53
2018-10-17T19:41:57.456Z,34.57
2018-10-17T19:44:25.862Z,46.10
2018-10-17T19:46:55.034Z,34.30
2018-10-17T19:49:23.787Z,38.53
2018-10-17T19:51:52.382Z,37.40
2018-10-17T19:54:30.494Z,39.17
2018-10-17T19:56:59.626Z,41.07
2018-10-17T19:59:29.602Z,45.30
2018-10-17T20:02:03.655Z,44.90
2018-10-17T20:04:32.419Z,46.30
2018-10-17T20:07:01.149Z,51.53
2018-10-17T20:09:29.938Z,49.90
2018-10-17T20:12:00.454Z,38.27
2018-10-17T20:14:30.042Z,43.80
2018-10-17T20:16:58.762Z,44.00
2018-10-17T20:19:27.817Z,40.83
2018-10-17T20:21:56.722Z,42.67
2018-10-17T20:24:24.735Z,39.57
2018-10-17T20:26:53.639Z,41.67
2018-10-17T20:29:22.037Z,45.27
2018-10-17T20:31:51.733Z,46.60
2018-10-17T20:34:20.737Z,46.77
2018-10-17T20:36:49.995Z,46.10
2018-10-17T20:39:18.845Z,44.40
2018-10-17T20:41:47.538Z,48.00
2018-10-17T20:44:17.886Z,44.40
2018-10-17T20:46:46.597Z,59.00
2018-10-17T20:49:15.284Z,50.97
2018-10-17T20:51:44.885Z,51.33
2018-10-17T20:54:13.439Z,44.40
2018-10-17T20:56:42.489Z,49.20
2018-10-17T20:59:11.157Z,48.13
2018-10-17T21:01:49.672Z,49.13
2018-10-17T21:04:23.531Z,55.57
2018-10-17T21:06:53.363Z,49.23
2018-10-17T21:09:25.158Z,62.33
2018-10-17T21:11:53.849Z,51.20
2018-10-17T21:14:21.944Z,47.03
2018-10-17T21:16:50.104Z,45.13
2018-10-17T21:19:18.209Z,51.27
2018-10-17T21:21:46.535Z,52.03
2018-10-17T21:24:15.359Z,53.93
2018-10-17T21:26:43.584Z,51.63
2018-10-17T21:29:12.256Z,49.33
2018-10-17T21:31:40.374Z,59.40
2018-10-17T21:34:08.509Z,58.20
2018-10-17T21:36:36.908Z,53.73
2018-10-17T21:39:07.397Z,55.30
2018-10-17T21:41:35.774Z,54.70
2018-10-17T21:44:05.357Z,55.27
2018-10-17T21:46:33.703Z,54.23
2018-10-17T21:49:01.866Z,56.00
2018-10-17T21:51:29.956Z,53.23
2018-10-17T21:53:58.142Z,54.03
2018-10-17T21:56:26.370Z,54.83
2018-10-17T21:58:55.342Z,56.40
